Time;durP1;ratioP1;P1;durP2;ratioP2;P2;SDS_P1;SDS_P2;PMS_P1;PMS_P2;Temp;Humidity;BMP_temperature;BMP_pressure;BME280_temperature;BME280_humidity;BME280_pressure;Samples;Min_cycle;Max_cycle;Signal;HPM_P1;HPM_P2
2024/02/29 00:01:04;;;;;;;26.70;8.80;;;;;;;4.06;58.59;100169.19;107362;1254;60405;-39
2024/02/29 00:03:32;;;;;;;27.10;8.40;;;;;;;4.03;58.76;100169.09;107384;1254;60414;-39
2024/02/29 00:05:59;;;;;;;21.50;7.50;;;;;;;4.00;58.88;100174.14;107379;1254;73844;-39
2024/02/29 00:08:27;;;;;;;19.40;7.40;;;;;;;3.98;58.84;100175.29;107357;1259;66601;-39
2024/02/29 00:10:55;;;;;;;26.30;7.10;;;;;;;3.95;58.99;100172.02;107374;1255;72619;-39
2024/02/29 00:13:22;;;;;;;23.90;7.70;;;;;;;3.94;58.99;100172.35;107486;1254;60571;-39
2024/02/29 00:15:50;;;;;;;27.10;7.20;;;;;;;3.94;58.93;100176.96;107523;1254;60378;-39
2024/02/29 00:18:18;;;;;;;31.30;7.90;;;;;;;3.93;59.00;100174.20;107362;1254;73892;-39
2024/02/29 00:20:46;;;;;;;20.80;7.40;;;;;;;3.92;59.05;100169.33;106629;1254;1003734;-39
2024/02/29 00:23:13;;;;;;;19.20;6.60;;;;;;;3.91;59.10;100167.52;107360;1256;71479;-39
2024/02/29 00:25:41;;;;;;;22.90;7.60;;;;;;;3.91;59.20;100163.84;107341;1257;60213;-39
2024/02/29 00:28:09;;;;;;;16.60;7.10;;;;;;;3.91;59.30;100161.16;107356;1254;60539;-39
2024/02/29 00:30:38;;;;;;;24.70;7.50;;;;;;;3.90;59.27;100160.52;107356;1254;73979;-39
2024/02/29 00:33:06;;;;;;;20.10;7.60;;;;;;;3.87;59.31;100162.52;107385;1254;67660;-39
2024/02/29 00:35:33;;;;;;;23.20;7.40;;;;;;;3.84;59.44;100159.50;107314;1255;71447;-40
2024/02/29 00:38:01;;;;;;;31.90;8.40;;;;;;;3.81;59.28;100164.27;107312;1254;60305;-39
2024/02/29 00:40:29;;;;;;;23.70;8.10;;;;;;;3.79;59.50;100162.48;107293;1260;60309;-39
2024/02/29 00:42:57;;;;;;;21.80;7.60;;;;;;;3.77;59.47;100156.31;107309;1254;73892;-39
2024/02/29 00:45:24;;;;;;;27.40;7.30;;;;;;;3.75;59.58;100157.19;107289;1260;67555;-39
2024/02/29 00:47:54;;;;;;;28.00;8.10;;;;;;;3.73;59.77;100154.17;107365;1259;72667;-39
2024/02/29 00:50:22;;;;;;;;;;;;;;;3.69;59.70;100151.66;107472;1254;60443;-39
2024/02/29 00:52:49;;;;;;;21.90;6.90;;;;;;;3.65;60.01;100153.45;107332;1254;60459;-39
2024/02/29 00:55:17;;;;;;;27.00;8.10;;;;;;;3.60;60.05;100152.51;107499;1254;73925;-39
2024/02/29 00:57:49;;;;;;;24.70;7.20;;;;;;;3.58;60.14;100146.45;107317;1257;67225;-39
2024/02/29 01:00:18;;;;;;;27.40;7.50;;;;;;;3.55;60.36;100150.03;107487;1254;72622;-39
2024/02/29 01:02:45;;;;;;;27.50;7.80;;;;;;;3.51;60.45;100148.53;107361;1258;60496;-39
2024/02/29 01:05:14;;;;;;;19.30;7.50;;;;;;;3.48;60.61;100145.67;107353;1259;59502;-39
2024/02/29 01:07:42;;;;;;;23.20;7.80;;;;;;;3.45;60.65;100145.41;107366;1260;71823;-39
2024/02/29 01:10:12;;;;;;;31.20;8.40;;;;;;;3.43;60.82;100144.01;107475;1259;68045;-39
2024/02/29 01:12:41;;;;;;;28.10;6.90;;;;;;;3.40;60.85;100145.82;107336;1257;72661;-39
2024/02/29 01:15:10;;;;;;;14.10;5.70;;;;;;;3.37;61.26;100142.16;107305;1254;60380;-39
2024/02/29 01:17:38;;;;;;;23.40;7.10;;;;;;;3.34;61.13;100141.84;107533;1254;60895;-39
2024/02/29 01:20:06;;;;;;;26.50;7.70;;;;;;;3.32;61.37;100140.96;107472;1254;73873;-39
2024/02/29 01:22:37;;;;;;;26.90;7.80;;;;;;;3.31;61.50;100141.40;107353;1254;66771;-39
2024/02/29 01:25:05;;;;;;;28.90;7.50;;;;;;;3.30;61.42;100140.55;107318;1255;71459;-39
2024/02/29 01:27:34;;;;;;;24.30;7.10;;;;;;;3.36;61.48;100140.90;107486;1254;59644;-39
2024/02/29 01:30:02;;;;;;;30.80;7.80;;;;;;;3.43;61.43;100140.79;107369;1254;60331;-39
2024/02/29 01:32:29;;;;;;;21.90;7.20;;;;;;;3.45;61.47;100137.27;107475;1254;72608;-39
2024/02/29 01:35:00;;;;;;;25.20;6.90;;;;;;;3.44;61.53;100134.48;107519;1254;66264;-39
2024/02/29 01:37:27;;;;;;;21.20;8.20;;;;;;;3.44;61.44;100136.31;107357;1256;72670;-39
2024/02/29 01:39:55;;;;;;;23.90;7.90;;;;;;;3.45;61.53;100141.12;107346;1254;60499;-39
2024/02/29 01:42:23;;;;;;;30.90;7.90;;;;;;;3.44;61.51;100138.08;107463;1254;60336;-39
2024/02/29 01:44:54;;;;;;;23.10;7.70;;;;;;;3.44;61.60;100138.08;107373;1254;73885;-39
2024/02/29 01:47:22;;;;;;;24.80;7.20;;;;;;;3.42;61.61;100138.50;107402;1257;67537;-39
2024/02/29 01:49:50;;;;;;;24.30;7.10;;;;;;;3.39;61.63;100139.92;107478;1260;71422;-39
2024/02/29 01:52:18;;;;;;;30.20;8.20;;;;;;;3.35;61.81;100138.83;107372;1255;60451;-39
2024/02/29 01:54:47;;;;;;;26.30;7.30;;;;;;;3.31;62.00;100138.73;107330;1254;60439;-39
2024/02/29 01:57:14;;;;;;;25.90;8.10;;;;;;;3.29;61.84;100138.30;107298;1257;73864;-40
2024/02/29 01:59:42;;;;;;;26.10;8.20;;;;;;;3.28;61.92;100136.95;107331;1259;67569;-40
2024/02/29 02:02:10;;;;;;;27.10;8.30;;;;;;;3.27;62.10;100135.62;107323;1259;72767;-40
2024/02/29 02:04:37;;;;;;;26.50;7.80;;;;;;;3.27;62.10;100135.52;107332;1257;60319;-39
2024/02/29 02:07:05;;;;;;;30.00;8.70;;;;;;;3.25;62.10;100135.17;107336;1254;60282;-40
2024/02/29 02:09:34;;;;;;;26.60;7.60;;;;;;;3.22;62.13;100133.14;107332;1254;73879;-40
2024/02/29 02:12:03;;;;;;;29.10;7.90;;;;;;;3.20;62.29;100133.31;107356;1254;67559;-40
2024/02/29 02:14:31;;;;;;;34.10;8.50;;;;;;;3.17;62.24;100137.92;107350;1254;71979;-40
2024/02/29 02:16:59;;;;;;;27.30;8.30;;;;;;;3.18;62.39;100142.05;107478;1254;60450;-40
2024/02/29 02:19:27;;;;;;;27.60;7.70;;;;;;;3.14;62.44;100140.93;107331;1254;60430;-39
2024/02/29 02:21:55;;;;;;;28.50;7.00;;;;;;;3.19;62.46;100141.81;107475;1256;72586;-40
2024/02/29 02:24:24;;;;;;;26.50;7.60;;;;;;;3.26;62.37;100139.34;107478;1254;67879;-40
2024/02/29 02:26:51;;;;;;;25.20;8.50;;;;;;;3.26;62.35;100136.86;107481;1254;71206;-40
2024/02/29 02:29:19;;;;;;;27.60;8.00;;;;;;;3.27;62.46;100135.58;107497;1260;60504;-40
2024/02/29 02:31:46;;;;;;;36.60;7.50;;;;;;;3.30;62.27;100132.40;107543;1255;59269;-40
2024/02/29 02:34:14;;;;;;;25.30;7.80;;;;;;;3.31;62.34;100134.38;107366;1260;72564;-40
2024/02/29 02:36:41;;;;;;;31.70;7.90;;;;;;;3.27;62.25;100131.86;107341;1259;67543;-39
2024/02/29 02:39:09;;;;;;;29.60;7.80;;;;;;;3.21;62.36;100128.95;107338;1260;72658;-39
2024/02/29 02:41:36;;;;;;;22.50;7.20;;;;;;;3.18;62.29;100130.52;107285;1254;60319;-39
2024/02/29 02:44:04;;;;;;;23.30;7.30;;;;;;;3.15;62.61;100127.14;107360;1259;60341;-39
2024/02/29 02:46:31;;;;;;;21.80;7.10;;;;;;;3.11;62.44;100129.11;107333;1260;72999;-39
2024/02/29 02:48:59;;;;;;;29.00;7.40;;;;;;;3.07;62.66;100130.84;107478;1260;66968;-39
2024/02/29 02:51:26;;;;;;;29.70;8.00;;;;;;;3.03;62.73;100130.85;107324;1259;72634;-39
2024/02/29 02:53:54;;;;;;;23.40;7.70;;;;;;;3.00;62.78;100128.16;107342;1255;60614;-39
2024/02/29 02:56:21;;;;;;;21.90;7.00;;;;;;;2.97;62.91;100131.63;107498;1254;60510;-39
2024/02/29 02:58:49;;;;;;;30.50;7.80;;;;;;;2.94;62.98;100131.30;107436;1254;73826;-39
2024/02/29 03:01:16;;;;;;;15.40;6.80;;;;;;;2.92;63.04;100134.38;106601;1260;1002832;-39
2024/02/29 03:03:45;;;;;;;21.80;6.90;;;;;;;2.89;63.26;100136.30;107319;1260;72748;-39
2024/02/29 03:06:14;;;;;;;24.80;7.60;;;;;;;2.89;63.34;100137.21;107368;1260;60596;-39
2024/02/29 03:08:41;;;;;;;31.80;7.40;;;;;;;2.94;63.30;100133.77;107357;1259;60297;-39
2024/02/29 03:11:09;;;;;;;30.80;7.20;;;;;;;3.00;63.40;100130.98;107338;1260;72574;-39
2024/02/29 03:13:38;;;;;;;24.50;7.00;;;;;;;3.00;63.15;100131.24;107243;1254;66864;-39
2024/02/29 03:16:08;;;;;;;23.70;7.60;;;;;;;2.99;63.30;100134.29;107134;1261;72741;-39
2024/02/29 03:18:36;;;;;;;31.40;9.00;;;;;;;2.97;63.27;100131.14;107325;1257;60514;-39
2024/02/29 03:21:04;;;;;;;24.10;6.70;;;;;;;2.96;63.26;100131.80;107368;1255;61055;-39
2024/02/29 03:23:31;;;;;;;32.20;7.30;;;;;;;2.93;63.40;100129.12;107237;1254;175441;-39
2024/02/29 03:27:11;;;;;;;24.60;7.30;;;;;;;2.89;63.50;100127.20;104227;1293;613099;-39
2024/02/29 03:29:37;;;;;;;26.50;7.90;;;;;;;2.85;63.56;100130.10;106761;1264;59245;-39
2024/02/29 03:32:04;;;;;;;23.80;8.10;;;;;;;2.81;63.76;100135.88;107025;1265;59131;-39
2024/02/29 03:34:31;;;;;;;29.20;7.30;;;;;;;2.77;63.84;100136.58;106908;1260;72276;-39
2024/02/29 03:36:58;;;;;;;32.00;8.00;;;;;;;2.72;64.00;100133.97;106940;1265;68508;-39
2024/02/29 03:39:24;;;;;;;23.00;7.40;;;;;;;2.69;64.09;100135.94;106694;1261;177445;-39
2024/02/29 03:41:51;;;;;;;23.00;6.80;;;;;;;2.64;64.15;100138.79;106982;1261;59122;-38
2024/02/29 03:44:18;;;;;;;29.30;7.30;;;;;;;2.65;64.30;100138.45;107028;1261;60053;-39
2024/02/29 03:46:44;;;;;;;26.30;7.30;;;;;;;2.70;64.24;100138.86;107134;1260;72814;-39
2024/02/29 03:49:11;;;;;;;24.50;7.30;;;;;;;2.70;64.22;100139.02;107026;1260;67947;-38
2024/02/29 03:51:39;;;;;;;25.30;7.70;;;;;;;2.68;64.38;100138.46;107009;1261;73135;-39
2024/02/29 03:54:05;;;;;;;23.40;7.60;;;;;;;2.64;64.46;100136.42;107013;1261;59727;-39
2024/02/29 03:56:32;;;;;;;28.80;7.90;;;;;;;2.62;64.55;100132.02;107017;1261;60106;-40
2024/02/29 03:58:59;;;;;;;29.30;7.50;;;;;;;2.61;64.67;100135.52;107075;1260;71237;-39
2024/02/29 04:01:26;;;;;;;23.10;8.10;;;;;;;2.58;64.81;100135.59;107021;1261;68044;-39
2024/02/29 04:03:53;;;;;;;29.30;7.50;;;;;;;2.56;64.89;100141.41;107068;1265;73165;-39
2024/02/29 04:06:19;;;;;;;19.90;7.50;;;;;;;2.55;65.01;100142.65;107020;1261;59546;-39
2024/02/29 04:08:46;;;;;;;24.00;8.00;;;;;;;2.52;65.01;100140.76;107051;1264;60147;-39
2024/02/29 04:11:13;;;;;;;26.90;7.30;;;;;;;2.47;65.26;100144.98;107013;1261;73398;-38
2024/02/29 04:13:40;;;;;;;27.10;8.10;;;;;;;2.43;65.10;100146.59;107069;1260;67931;-38
2024/02/29 04:16:07;;;;;;;29.80;7.50;;;;;;;2.46;65.21;100144.84;107052;1260;73214;-39
2024/02/29 04:18:34;;;;;;;29.20;7.90;;;;;;;2.52;65.15;100146.85;107090;1261;59574;-39
2024/02/29 04:21:00;;;;;;;30.30;8.10;;;;;;;2.54;65.39;100146.63;107067;1265;60322;-39
2024/02/29 04:23:27;;;;;;;25.00;6.90;;;;;;;2.55;65.25;100149.02;107006;1261;73662;-39
2024/02/29 04:25:54;;;;;;;32.80;7.80;;;;;;;2.55;65.14;100146.66;107030;1266;67984;-38
2024/02/29 04:28:21;;;;;;;30.80;7.20;;;;;;;2.55;65.35;100149.55;106994;1266;73258;-38
2024/02/29 04:30:48;;;;;;;21.70;6.60;;;;;;;2.54;65.27;100150.36;107041;1266;59746;-38
2024/02/29 04:33:15;;;;;;;27.20;7.20;;;;;;;2.51;65.37;100151.48;107074;1261;60449;-38
2024/02/29 04:35:41;;;;;;;27.40;6.70;;;;;;;2.50;65.37;100149.23;107060;1260;73445;-38
2024/02/29 04:38:08;;;;;;;28.60;7.90;;;;;;;2.48;65.30;100150.16;107010;1266;67724;-39
2024/02/29 04:40:34;;;;;;;26.10;8.00;;;;;;;2.44;65.46;100155.84;107026;1266;73306;-39
2024/02/29 04:43:01;;;;;;;31.70;7.70;;;;;;;2.40;65.49;100156.95;107055;1261;59687;-39
2024/02/29 04:45:28;;;;;;;19.40;7.50;;;;;;;2.35;65.81;100161.56;107053;1260;60015;-39
2024/02/29 04:47:56;;;;;;;35.30;7.60;;;;;;;2.34;65.81;100159.86;107038;1260;73581;-39
2024/02/29 04:50:23;;;;;;;26.20;7.10;;;;;;;2.41;65.85;100164.81;107027;1260;67586;-38
2024/02/29 04:52:49;;;;;;;26.00;7.50;;;;;;;2.49;65.65;100162.00;107038;1266;73093;-39
2024/02/29 04:55:16;;;;;;;35.90;8.40;;;;;;;2.51;65.65;100161.13;107059;1260;59604;-39
2024/02/29 04:57:43;;;;;;;26.10;8.20;;;;;;;2.49;65.63;100167.34;107063;1265;59988;-39
2024/02/29 05:00:11;;;;;;;24.10;8.40;;;;;;;2.48;65.90;100169.49;107044;1262;73435;-39
2024/02/29 05:02:38;;;;;;;26.10;8.70;;;;;;;2.49;65.88;100169.38;107078;1261;66448;-40
2024/02/29 05:05:06;;;;;;;24.30;7.60;;;;;;;2.49;65.90;100164.13;107031;1260;73145;-40
2024/02/29 05:07:33;;;;;;;31.10;8.40;;;;;;;2.48;65.88;100163.92;107048;1266;59647;-40
2024/02/29 05:10:00;;;;;;;27.70;8.60;;;;;;;2.47;65.88;100167.54;107044;1265;59637;-39
2024/02/29 05:12:27;;;;;;;35.50;8.50;;;;;;;2.46;66.05;100173.02;107049;1265;73100;-40
2024/02/29 05:14:54;;;;;;;36.40;8.30;;;;;;;2.43;66.05;100170.47;107012;1264;67944;-40
2024/02/29 05:17:21;;;;;;;31.00;8.80;;;;;;;2.39;66.34;100174.79;107017;1261;72969;-39
2024/02/29 05:19:48;;;;;;;24.50;8.70;;;;;;;2.36;66.37;100176.34;107038;1265;59707;-39
2024/02/29 05:22:14;;;;;;;34.40;7.90;;;;;;;2.39;66.35;100174.10;107043;1260;60130;-39
2024/02/29 05:24:41;;;;;;;28.00;7.50;;;;;;;2.45;66.33;100175.42;107037;1265;73320;-39
2024/02/29 05:27:09;;;;;;;29.70;8.60;;;;;;;2.47;66.45;100178.08;107017;1264;68526;-39
2024/02/29 05:29:36;;;;;;;27.40;8.20;;;;;;;2.47;66.34;100182.75;106946;1265;72575;-40
2024/02/29 05:32:03;;;;;;;27.90;8.60;;;;;;;2.48;66.45;100186.84;106863;1266;59711;-40
2024/02/29 05:34:30;;;;;;;23.80;7.70;;;;;;;2.48;66.56;100187.09;106895;1265;59526;-39
2024/02/29 05:36:56;;;;;;;28.90;9.30;;;;;;;2.50;66.69;100186.55;106776;1266;73504;-40
2024/02/29 05:39:23;;;;;;;26.30;8.10;;;;;;;2.50;66.69;100183.45;106952;1265;68252;-40
2024/02/29 05:41:50;;;;;;;31.10;9.30;;;;;;;2.48;66.80;100187.80;106993;1260;73110;-39
2024/02/29 05:44:17;;;;;;;28.10;8.30;;;;;;;2.48;66.86;100188.77;107031;1260;59665;-39
2024/02/29 05:46:43;;;;;;;21.20;7.30;;;;;;;2.48;66.93;100192.30;107000;1261;60349;-40
2024/02/29 05:49:10;;;;;;;22.50;8.30;;;;;;;2.49;67.06;100189.67;107001;1261;73552;-39
2024/02/29 05:51:37;;;;;;;32.70;8.20;;;;;;;2.55;66.97;100191.24;106904;1266;67725;-39
2024/02/29 05:54:04;;;;;;;29.90;8.10;;;;;;;2.63;67.06;100188.95;106937;1261;73051;-39
2024/02/29 05:56:31;;;;;;;27.20;8.40;;;;;;;2.67;67.08;100192.29;106902;1261;59787;-40
2024/02/29 05:58:58;;;;;;;26.10;9.90;;;;;;;2.70;67.08;100195.52;107035;1265;60355;-39
2024/02/29 06:01:25;;;;;;;23.20;8.80;;;;;;;2.74;66.94;100197.33;107011;1265;72813;-39
2024/02/29 06:03:52;;;;;;;32.10;9.00;;;;;;;2.78;67.09;100203.45;107075;1265;68000;-39
2024/02/29 06:06:19;;;;;;;22.90;8.70;;;;;;;2.77;66.86;100198.54;107038;1264;73088;-40
2024/02/29 06:08:45;;;;;;;22.30;8.60;;;;;;;2.82;66.78;100205.85;107031;1264;59554;-40
2024/02/29 06:11:13;;;;;;;32.10;10.30;;;;;;;2.80;66.76;100212.27;107081;1261;60141;-39
2024/02/29 06:13:40;;;;;;;27.30;9.30;;;;;;;2.77;66.87;100213.36;107082;1264;71926;-39
2024/02/29 06:16:07;;;;;;;30.70;10.20;;;;;;;2.84;66.67;100215.48;107044;1264;68595;-39
2024/02/29 06:18:36;;;;;;;24.90;8.80;;;;;;;2.96;66.66;100221.86;107036;1265;72839;-40
2024/02/29 06:21:04;;;;;;;26.80;8.60;;;;;;;3.02;66.56;100220.27;107034;1260;59995;-39
2024/02/29 06:23:31;;;;;;;23.60;8.60;;;;;;;3.07;66.44;100220.27;107055;1261;60183;-40
2024/02/29 06:25:58;;;;;;;27.70;10.10;;;;;;;3.13;66.43;100217.61;107052;1264;73929;-39
2024/02/29 06:28:24;;;;;;;28.50;11.20;;;;;;;3.16;66.32;100215.05;107059;1261;67709;-38
2024/02/29 06:30:51;;;;;;;70.10;30.10;;;;;;;3.18;66.42;100212.19;106987;1261;73173;-38
2024/02/29 06:33:18;;;;;;;52.10;19.50;;;;;;;3.20;66.73;100207.59;107024;1264;59795;-39
2024/02/29 06:35:45;;;;;;;45.30;18.30;;;;;;;3.22;66.57;100212.83;107042;1260;60208;-39
2024/02/29 06:38:12;;;;;;;61.80;22.20;;;;;;;3.23;66.52;100209.92;107066;1260;73235;-39
2024/02/29 06:40:39;;;;;;;62.70;25.30;;;;;;;3.28;66.56;100205.66;107003;1261;68029;-40
2024/02/29 06:43:06;;;;;;;45.60;15.20;;;;;;;3.41;66.40;100204.35;107025;1261;72736;-39
2024/02/29 06:45:32;;;;;;;38.60;14.10;;;;;;;3.49;66.25;100202.18;107010;1264;59785;-38
2024/02/29 06:47:59;;;;;;;42.40;15.70;;;;;;;3.57;66.17;100205.44;107033;1264;60365;-38
2024/02/29 06:50:26;;;;;;;44.50;14.90;;;;;;;3.65;65.98;100204.55;107094;1260;73617;-38
2024/02/29 06:52:53;;;;;;;37.90;14.40;;;;;;;3.72;65.50;100203.31;106996;1261;66556;-38
2024/02/29 06:55:21;;;;;;;36.90;15.50;;;;;;;3.76;65.36;100201.70;107368;1260;71605;-38
2024/02/29 06:57:48;;;;;;;36.00;10.50;;;;;;;3.80;65.71;100198.78;107343;1257;59999;-38
2024/02/29 07:00:15;;;;;;;37.50;12.10;;;;;;;3.85;65.55;100199.12;107304;1261;60132;-38
2024/02/29 07:02:42;;;;;;;29.20;10.40;;;;;;;3.90;65.23;100201.88;107299;1257;73135;-39
2024/02/29 07:05:09;;;;;;;33.30;9.40;;;;;;;3.92;65.19;100205.05;107284;1257;67998;-39
2024/02/29 07:07:36;;;;;;;28.90;9.30;;;;;;;3.98;65.32;100207.92;107315;1258;72759;-38
2024/02/29 07:10:06;;;;;;;31.10;8.60;;;;;;;4.14;64.79;100209.58;107326;1258;61064;-39
2024/02/29 07:12:33;;;;;;;26.10;10.80;;;;;;;4.23;64.59;100207.58;107353;1257;60045;-38
2024/02/29 07:15:00;;;;;;;30.90;10.20;;;;;;;4.28;64.15;100213.30;107236;1262;73537;-39
2024/02/29 07:17:29;;;;;;;37.80;11.20;;;;;;;4.32;64.08;100211.85;107343;1257;67742;-39
2024/02/29 07:19:55;;;;;;;29.10;9.60;;;;;;;4.35;63.91;100213.27;107325;1257;72498;-38
2024/02/29 07:22:22;;;;;;;24.60;8.70;;;;;;;4.36;63.79;100206.19;107312;1257;59683;-38
2024/02/29 07:24:49;;;;;;;32.00;9.90;;;;;;;4.39;64.09;100205.52;107345;1256;60076;-38
2024/02/29 07:27:16;;;;;;;33.30;9.60;;;;;;;4.47;64.06;100207.63;107390;1260;74073;-38
2024/02/29 07:29:43;;;;;;;28.10;9.60;;;;;;;4.56;63.74;100204.48;107339;1257;68019;-39
2024/02/29 07:32:10;;;;;;;25.30;9.10;;;;;;;4.64;63.72;100199.86;107302;1257;71592;-38
2024/02/29 07:34:37;;;;;;;30.50;8.90;;;;;;;4.74;63.45;100205.61;107293;1257;60325;-38
2024/02/29 07:37:04;;;;;;;24.00;8.80;;;;;;;4.84;63.28;100211.07;107248;1260;60431;-39
2024/02/29 07:39:32;;;;;;;29.40;8.80;;;;;;;5.00;62.97;100214.27;107227;1258;74462;-40
2024/02/29 07:41:58;;;;;;;28.20;9.30;;;;;;;5.18;62.66;100221.23;107328;1257;68013;-37
2024/02/29 07:44:25;;;;;;;22.50;8.80;;;;;;;5.31;62.70;100227.02;107304;1260;72410;-39
2024/02/29 07:46:52;;;;;;;27.40;9.60;;;;;;;5.46;62.11;100222.17;107324;1257;60367;-39
2024/02/29 07:49:19;;;;;;;35.90;8.30;;;;;;;5.59;61.63;100220.30;107318;1257;60443;-39
2024/02/29 07:51:46;;;;;;;27.90;9.10;;;;;;;5.71;61.14;100215.34;107356;1257;74038;-39
2024/02/29 07:54:13;;;;;;;28.60;8.30;;;;;;;5.81;61.02;100213.89;107368;1258;68297;-39
2024/02/29 07:56:43;;;;;;;30.60;9.80;;;;;;;5.96;60.94;100216.89;107350;1260;72883;-40
2024/02/29 07:59:10;;;;;;;29.20;9.10;;;;;;;6.13;60.61;100216.58;107363;1260;60510;-39
2024/02/29 08:01:36;;;;;;;26.50;8.80;;;;;;;6.31;60.21;100217.50;107351;1258;60428;-39
2024/02/29 08:04:04;;;;;;;24.10;8.50;;;;;;;6.51;59.89;100217.27;107343;1258;73932;-39
2024/02/29 08:06:31;;;;;;;26.20;9.10;;;;;;;6.73;59.41;100215.23;107331;1257;68037;-39
2024/02/29 08:08:58;;;;;;;27.70;9.10;;;;;;;6.94;58.55;100210.67;107314;1258;72698;-39
2024/02/29 08:11:28;;;;;;;18.70;8.50;;;;;;;7.14;58.55;100211.37;107313;1257;60453;-39
2024/02/29 08:13:55;;;;;;;24.60;8.20;;;;;;;7.35;57.39;100211.27;107278;1260;60365;-39
2024/02/29 08:16:22;;;;;;;25.80;8.70;;;;;;;7.50;56.73;100211.36;107342;1257;72578;-39
2024/02/29 08:18:49;;;;;;;30.00;9.60;;;;;;;7.55;56.44;100200.05;107350;1258;70007;-39
2024/02/29 08:21:16;;;;;;;21.60;8.30;;;;;;;7.74;56.54;100210.74;107338;1257;72837;-39
2024/02/29 08:23:43;;;;;;;21.80;8.50;;;;;;;7.96;56.20;100213.24;107334;1258;60543;-39
2024/02/29 08:26:10;;;;;;;33.00;9.20;;;;;;;8.22;55.92;100216.60;107329;1256;60401;-39
2024/02/29 08:28:37;;;;;;;23.80;9.20;;;;;;;8.42;54.92;100217.13;107311;1260;73894;-39
2024/02/29 08:31:07;;;;;;;19.30;8.30;;;;;;;8.50;54.48;100217.56;107393;1256;67061;-39
2024/02/29 08:33:34;;;;;;;28.80;9.80;;;;;;;8.58;54.61;100209.92;107356;1257;72683;-39
2024/02/29 08:36:02;;;;;;;21.40;7.80;;;;;;;8.74;54.05;100216.04;107317;1257;60325;-39
2024/02/29 08:38:29;;;;;;;26.10;8.80;;;;;;;8.88;53.70;100212.80;107272;1256;61502;-39
2024/02/29 08:40:56;;;;;;;25.60;9.00;;;;;;;9.01;53.33;100202.27;107315;1255;73849;-39
2024/02/29 08:43:23;;;;;;;23.90;8.70;;;;;;;9.11;53.05;100212.17;107317;1260;68034;-40
2024/02/29 08:45:51;;;;;;;21.20;9.60;;;;;;;9.17;52.92;100212.61;107317;1256;72511;-39
2024/02/29 08:48:18;;;;;;;28.30;9.60;;;;;;;9.23;53.20;100212.66;107372;1257;60213;-39
2024/02/29 08:50:45;;;;;;;22.30;9.50;;;;;;;9.27;52.93;100213.45;107349;1260;60264;-40
2024/02/29 08:53:14;;;;;;;23.50;8.50;;;;;;;9.30;53.10;100205.73;107350;1257;73782;-39
2024/02/29 08:55:40;;;;;;;25.70;8.20;;;;;;;9.33;53.27;100208.86;107318;1258;67693;-40
2024/02/29 08:58:07;;;;;;;23.80;8.70;;;;;;;9.37;53.11;100209.64;107336;1256;71616;-39
2024/02/29 09:00:35;;;;;;;28.70;9.20;;;;;;;9.38;52.84;100209.05;107314;1257;60376;-39
2024/02/29 09:03:03;;;;;;;25.00;9.50;;;;;;;9.31;53.23;100207.09;107377;1258;61546;-39
2024/02/29 09:05:30;;;;;;;25.50;10.10;;;;;;;9.26;53.50;100204.04;107335;1260;73739;-39
2024/02/29 09:07:57;;;;;;;23.60;8.90;;;;;;;9.23;53.68;100197.23;107316;1257;66693;-39
2024/02/29 09:10:25;;;;;;;30.10;11.20;;;;;;;9.25;53.81;100196.88;107372;1257;72611;-39
2024/02/29 09:12:54;;;;;;;33.00;11.40;;;;;;;9.27;54.02;100198.98;107361;1260;60542;-39
2024/02/29 09:15:21;;;;;;;22.50;8.30;;;;;;;9.33;54.07;100205.45;107347;1257;60525;-39
2024/02/29 09:17:48;;;;;;;24.30;9.80;;;;;;;9.38;53.74;100203.19;107291;1260;73887;-39
2024/02/29 09:20:15;;;;;;;26.30;9.60;;;;;;;9.43;53.77;100207.55;107334;1257;69201;-39
2024/02/29 09:22:42;;;;;;;19.90;8.90;;;;;;;9.48;54.00;100202.79;107325;1257;72492;-39
2024/02/29 09:25:09;;;;;;;23.80;9.10;;;;;;;9.53;53.75;100206.60;106599;1257;1003771;-39
2024/02/29 09:27:36;;;;;;;28.10;10.10;;;;;;;9.55;53.39;100208.90;107370;1257;60531;-39
2024/02/29 09:30:05;;;;;;;20.90;9.00;;;;;;;9.55;53.62;100206.45;107350;1256;73864;-40
2024/02/29 09:32:32;;;;;;;22.70;7.30;;;;;;;9.56;53.66;100206.96;107337;1257;66664;-39
2024/02/29 09:34:59;;;;;;;22.60;9.30;;;;;;;9.60;53.72;100204.68;107369;1256;72717;-40
2024/02/29 09:37:26;;;;;;;18.60;8.40;;;;;;;9.66;53.76;100207.09;107362;1257;60562;-40
2024/02/29 09:39:53;;;;;;;23.10;8.90;;;;;;;9.77;53.81;100203.93;107377;1257;60432;-39
2024/02/29 09:42:21;;;;;;;28.60;9.80;;;;;;;9.97;53.55;100200.44;107334;1257;73930;-39
2024/02/29 09:44:50;;;;;;;19.20;8.80;;;;;;;10.27;53.23;100204.89;107417;1257;66843;-40
2024/02/29 09:47:19;;;;;;;22.00;9.10;;;;;;;10.65;52.04;100209.85;107326;1256;72649;-40
2024/02/29 09:49:46;;;;;;;25.50;10.10;;;;;;;11.02;51.31;100205.42;107149;1262;60556;-40
2024/02/29 09:52:20;;;;;;;24.60;10.20;;;;;;;11.36;50.67;100202.64;107436;1255;60305;-40
2024/02/29 09:54:47;;;;;;;24.60;9.00;;;;;;;11.62;49.89;100200.89;107219;1255;73876;-40
2024/02/29 09:57:14;;;;;;;23.40;8.60;;;;;;;11.83;49.37;100199.17;107471;1258;66655;-40
2024/02/29 09:59:41;;;;;;;29.70;10.00;;;;;;;12.03;49.09;100197.85;107210;1257;72721;-40
2024/02/29 10:02:13;;;;;;;20.00;9.60;;;;;;;12.21;48.86;100191.56;107514;1257;60149;-40
2024/02/29 10:04:40;;;;;;;18.80;9.40;;;;;;;12.38;48.51;100188.81;107500;1257;60074;-40
2024/02/29 10:07:07;;;;;;;24.30;9.10;;;;;;;12.57;48.23;100185.48;107450;1259;73793;-40
2024/02/29 10:09:34;;;;;;;26.50;9.10;;;;;;;12.82;47.79;100185.13;107411;1257;67954;-40
2024/02/29 10:12:01;;;;;;;20.00;9.10;;;;;;;13.08;46.89;100186.88;107458;1256;71491;-40
2024/02/29 10:14:30;;;;;;;29.10;10.10;;;;;;;13.20;46.51;100174.41;107478;1256;60427;-40
2024/02/29 10:16:57;;;;;;;21.20;9.20;;;;;;;13.40;46.35;100175.69;107353;1257;60434;-40
2024/02/29 10:19:24;;;;;;;22.40;9.50;;;;;;;13.64;46.11;100177.02;107448;1257;73687;-40
2024/02/29 10:21:51;;;;;;;28.70;9.60;;;;;;;13.91;45.68;100180.95;107291;1257;66906;-40
2024/02/29 10:24:19;;;;;;;30.00;10.40;;;;;;;14.15;45.17;100176.46;107449;1257;72522;-40
2024/02/29 10:26:46;;;;;;;29.40;10.10;;;;;;;14.28;44.76;100176.78;107508;1256;60562;-41
2024/02/29 10:29:16;;;;;;;18.50;8.90;;;;;;;14.32;44.45;100170.61;107473;1257;60318;-41
2024/02/29 10:31:43;;;;;;;;;;;;;;;14.37;44.59;100172.27;107452;1256;73965;-40
2024/02/29 10:34:12;;;;;;;20.20;9.00;;;;;;;14.37;44.30;100177.88;107486;1255;67007;-41
2024/02/29 10:36:40;;;;;;;21.00;9.20;;;;;;;14.37;44.17;100177.34;107506;1257;71352;-40
2024/02/29 10:39:08;;;;;;;19.10;8.90;;;;;;;14.42;44.11;100174.95;107491;1257;60536;-40
2024/02/29 10:41:37;;;;;;;20.80;9.10;;;;;;;14.52;44.00;100168.31;107356;1254;60434;-40
2024/02/29 10:44:06;;;;;;;20.90;9.50;;;;;;;14.62;43.64;100167.54;107397;1255;73952;-40
2024/02/29 10:46:32;;;;;;;19.40;8.70;;;;;;;14.61;43.44;100168.63;107458;1257;67855;-40
2024/02/29 10:49:03;;;;;;;23.50;8.70;;;;;;;14.62;43.23;100170.42;107254;1257;72517;-41
2024/02/29 10:51:43;;;;;;;19.90;7.90;;;;;;;14.67;43.04;100168.31;107482;1256;60543;-40
2024/02/29 10:54:30;;;;;;;21.00;9.40;;;;;;;14.68;42.54;100169.41;107501;1257;60306;-40
2024/02/29 10:56:57;;;;;;;19.40;8.30;;;;;;;14.68;42.99;100163.87;107451;1258;73885;-41
2024/02/29 10:59:24;;;;;;;21.00;9.20;;;;;;;14.69;42.78;100163.35;107261;1257;68993;-41
2024/02/29 11:01:56;;;;;;;24.40;9.30;;;;;;;14.70;42.48;100160.02;107464;1257;72766;-40
2024/02/29 11:04:23;;;;;;;21.70;9.30;;;;;;;14.71;42.65;100155.89;107459;1259;60309;-41
2024/02/29 11:06:52;;;;;;;20.30;8.30;;;;;;;14.86;42.56;100156.98;107454;1257;60302;-41
2024/02/29 11:09:20;;;;;;;19.20;8.40;;;;;;;15.06;41.76;100150.61;107411;1260;74242;-40
2024/02/29 11:12:11;;;;;;;18.50;8.30;;;;;;;15.26;41.70;100152.52;107487;1257;67956;-41
2024/02/29 11:14:38;;;;;;;21.50;8.50;;;;;;;15.48;40.85;100150.07;107455;1255;71505;-40
2024/02/29 11:17:05;;;;;;;19.90;8.00;;;;;;;15.58;40.20;100149.49;107436;1257;60328;-41